sensor_id;sensor_type;location;lat;lon;timestamp;pressure;altitude;pressure_sealevel;temperature;humidity
20752;BME280;10536;51.582;5.016;2022-08-04T00:00:06;101287.09;;;23.25;100.00
20752;BME280;10536;51.582;5.016;2022-08-04T00:05:15;101284.75;;;23.21;100.00
20752;BME280;10536;51.582;5.016;2022-08-04T00:10:21;101282.53;;;23.13;100.00
20752;BME280;10536;51.582;5.016;2022-08-04T00:15:22;101276.59;;;23.10;100.00
20752;BME280;10536;51.582;5.016;2022-08-04T00:20:23;101275.50;;;22.98;100.00
20752;BME280;10536;51.582;5.016;2022-08-04T00:25:28;101267.19;;;22.90;100.00
20752;BME280;10536;51.582;5.016;2022-08-04T00:30:29;101264.69;;;22.86;100.00
20752;BME280;10536;51.582;5.016;2022-08-04T00:35:30;101258.59;;;22.86;100.00
20752;BME280;10536;51.582;5.016;2022-08-04T00:51:37;101242.03;;;22.68;100.00
20752;BME280;10536;51.582;5.016;2022-08-04T01:17:35;101240.44;;;22.50;100.00
20752;BME280;10536;51.582;5.016;2022-08-04T01:33:03;101243.84;;;22.36;100.00
20752;BME280;10536;51.582;5.016;2022-08-04T01:43:30;101238.94;;;22.30;100.00
20752;BME280;10536;51.582;5.016;2022-08-04T01:48:31;101234.50;;;22.30;100.00
20752;BME280;10536;51.582;5.016;2022-08-04T01:53:36;101230.19;;;22.29;100.00
20752;BME280;10536;51.582;5.016;2022-08-04T01:58:38;101236.97;;;22.33;100.00
20752;BME280;10536;51.582;5.016;2022-08-04T02:03:40;101232.47;;;22.35;100.00
20752;BME280;10536;51.582;5.016;2022-08-04T02:14:07;101232.13;;;22.25;100.00
20752;BME280;10536;51.582;5.016;2022-08-04T02:19:27;101223.09;;;22.14;100.00
20752;BME280;10536;51.582;5.016;2022-08-04T02:24:31;101228.09;;;21.86;100.00
20752;BME280;10536;51.582;5.016;2022-08-04T02:29:39;101224.69;;;21.84;100.00
20752;BME280;10536;51.582;5.016;2022-08-04T02:34:54;101231.97;;;21.79;100.00
20752;BME280;10536;51.582;5.016;2022-08-04T02:40:02;101215.81;;;21.69;100.00
20752;BME280;10536;51.582;5.016;2022-08-04T02:45:04;101221.00;;;21.71;100.00
20752;BME280;10536;51.582;5.016;2022-08-04T02:55:10;101207.91;;;21.69;100.00
20752;BME280;10536;51.582;5.016;2022-08-04T03:05:33;101205.75;;;21.78;100.00
20752;BME280;10536;51.582;5.016;2022-08-04T03:11:11;101205.75;;;21.78;100.00
20752;BME280;10536;51.582;5.016;2022-08-04T03:16:29;101214.63;;;21.59;100.00
20752;BME280;10536;51.582;5.016;2022-08-04T03:58:53;101189.97;;;21.27;100.00
20752;BME280;10536;51.582;5.016;2022-08-04T04:04:22;101190.75;;;21.29;100.00
20752;BME280;10536;51.582;5.016;2022-08-04T04:20:24;101208.69;;;21.21;100.00
20752;BME280;10536;51.582;5.016;2022-08-04T04:25:45;101217.84;;;21.14;100.00
20752;BME280;10536;51.582;5.016;2022-08-04T04:36:56;101215.13;;;21.33;100.00
20752;BME280;10536;51.582;5.016;2022-08-04T04:52:12;101211.63;;;21.49;100.00
20752;BME280;10536;51.582;5.016;2022-08-04T04:57:19;101214.19;;;21.51;100.00
20752;BME280;10536;51.582;5.016;2022-08-04T05:02:29;101227.19;;;21.37;100.00
20752;BME280;10536;51.582;5.016;2022-08-04T05:13:23;101219.19;;;21.56;100.00
20752;BME280;10536;51.582;5.016;2022-08-04T05:18:29;101212.59;;;21.64;100.00
20752;BME280;10536;51.582;5.016;2022-08-04T05:23:35;101211.78;;;21.80;100.00
20752;BME280;10536;51.582;5.016;2022-08-04T05:28:47;101204.31;;;21.88;100.00
20752;BME280;10536;51.582;5.016;2022-08-04T05:33:57;101208.97;;;21.99;100.00
20752;BME280;10536;51.582;5.016;2022-08-04T05:39:00;101212.28;;;22.18;100.00
20752;BME280;10536;51.582;5.016;2022-08-04T05:44:02;101207.06;;;22.34;100.00
20752;BME280;10536;51.582;5.016;2022-08-04T05:49:03;101208.00;;;22.33;100.00
20752;BME280;10536;51.582;5.016;2022-08-04T05:54:05;101218.03;;;22.42;100.00
20752;BME280;10536;51.582;5.016;2022-08-04T05:59:07;101217.72;;;22.63;100.00
20752;BME280;10536;51.582;5.016;2022-08-04T06:04:10;101215.84;;;22.65;100.00
20752;BME280;10536;51.582;5.016;2022-08-04T06:09:11;101221.06;;;22.81;100.00
20752;BME280;10536;51.582;5.016;2022-08-04T06:14:13;101213.66;;;22.87;100.00
20752;BME280;10536;51.582;5.016;2022-08-04T06:19:15;101221.75;;;22.84;100.00
20752;BME280;10536;51.582;5.016;2022-08-04T06:24:19;101228.53;;;22.88;100.00
20752;BME280;10536;51.582;5.016;2022-08-04T06:29:22;101239.72;;;22.78;100.00
20752;BME280;10536;51.582;5.016;2022-08-04T06:34:31;101238.75;;;22.95;100.00
20752;BME280;10536;51.582;5.016;2022-08-04T06:39:34;101227.25;;;22.96;100.00
20752;BME280;10536;51.582;5.016;2022-08-04T06:44:35;101240.50;;;23.10;100.00
20752;BME280;10536;51.582;5.016;2022-08-04T06:49:37;101241.47;;;23.23;100.00
20752;BME280;10536;51.582;5.016;2022-08-04T06:54:38;101247.34;;;23.29;100.00
20752;BME280;10536;51.582;5.016;2022-08-04T06:59:43;101248.09;;;23.31;100.00
20752;BME280;10536;51.582;5.016;2022-08-04T07:04:45;101236.91;;;23.56;100.00
20752;BME280;10536;51.582;5.016;2022-08-04T07:09:47;101255.38;;;23.70;100.00
20752;BME280;10536;51.582;5.016;2022-08-04T07:14:48;101246.91;;;23.94;100.00
20752;BME280;10536;51.582;5.016;2022-08-04T07:19:50;101249.91;;;24.16;100.00
20752;BME280;10536;51.582;5.016;2022-08-04T07:24:56;101265.19;;;24.53;100.00
20752;BME280;10536;51.582;5.016;2022-08-04T07:29:57;101262.69;;;24.51;100.00
20752;BME280;10536;51.582;5.016;2022-08-04T07:34:57;101261.81;;;24.78;100.00
20752;BME280;10536;51.582;5.016;2022-08-04T07:40:00;101257.53;;;25.02;100.00
20752;BME280;10536;51.582;5.016;2022-08-04T07:45:00;101259.41;;;25.28;100.00
20752;BME280;10536;51.582;5.016;2022-08-04T07:50:01;101269.16;;;25.40;100.00
20752;BME280;10536;51.582;5.016;2022-08-04T07:55:02;101272.75;;;25.52;100.00
20752;BME280;10536;51.582;5.016;2022-08-04T08:00:04;101273.50;;;25.67;100.00
20752;BME280;10536;51.582;5.016;2022-08-04T08:05:07;101285.34;;;25.74;100.00
20752;BME280;10536;51.582;5.016;2022-08-04T08:10:12;101294.16;;;25.74;100.00
20752;BME280;10536;51.582;5.016;2022-08-04T08:15:13;101297.00;;;25.71;100.00
20752;BME280;10536;51.582;5.016;2022-08-04T08:20:14;101294.25;;;25.73;100.00
20752;BME280;10536;51.582;5.016;2022-08-04T08:25:15;101291.38;;;25.89;100.00
20752;BME280;10536;51.582;5.016;2022-08-04T08:30:15;101295.63;;;26.17;100.00
20752;BME280;10536;51.582;5.016;2022-08-04T08:35:16;101288.00;;;26.36;100.00
20752;BME280;10536;51.582;5.016;2022-08-04T08:40:34;101293.94;;;26.40;100.00
20752;BME280;10536;51.582;5.016;2022-08-04T08:46:03;101300.25;;;26.63;100.00
20752;BME280;10536;51.582;5.016;2022-08-04T08:51:16;101307.91;;;26.55;100.00
20752;BME280;10536;51.582;5.016;2022-08-04T08:56:32;101318.16;;;26.72;100.00
20752;BME280;10536;51.582;5.016;2022-08-04T09:01:54;101320.63;;;26.87;100.00
20752;BME280;10536;51.582;5.016;2022-08-04T09:07:09;101324.75;;;26.91;100.00
20752;BME280;10536;51.582;5.016;2022-08-04T09:22:37;101346.19;;;26.64;100.00
20752;BME280;10536;51.582;5.016;2022-08-04T09:27:49;101370.50;;;26.57;100.00
20752;BME280;10536;51.582;5.016;2022-08-04T09:33:06;101369.47;;;26.34;100.00
20752;BME280;10536;51.582;5.016;2022-08-04T09:38:19;101365.50;;;26.16;100.00
20752;BME280;10536;51.582;5.016;2022-08-04T09:48:57;101377.75;;;25.53;100.00
20752;BME280;10536;51.582;5.016;2022-08-04T09:54:11;101378.28;;;25.18;100.00
20752;BME280;10536;51.582;5.016;2022-08-04T10:05:01;101412.34;;;24.39;100.00
20752;BME280;10536;51.582;5.016;2022-08-04T10:10:31;101408.00;;;24.24;100.00
20752;BME280;10536;51.582;5.016;2022-08-04T10:21:10;101416.28;;;24.03;100.00
20752;BME280;10536;51.582;5.016;2022-08-04T10:26:35;101407.97;;;23.95;100.00
20752;BME280;10536;51.582;5.016;2022-08-04T10:32:01;101379.84;;;23.80;100.00
20752;BME280;10536;51.582;5.016;2022-08-04T10:37:23;101389.31;;;23.68;100.00
20752;BME280;10536;51.582;5.016;2022-08-04T10:42:26;101362.72;;;23.71;100.00
20752;BME280;10536;51.582;5.016;2022-08-04T10:47:34;101393.38;;;23.74;100.00
20752;BME280;10536;51.582;5.016;2022-08-04T10:52:54;101384.53;;;23.75;100.00
20752;BME280;10536;51.582;5.016;2022-08-04T10:58:09;101375.06;;;23.71;100.00
20752;BME280;10536;51.582;5.016;2022-08-04T11:03:20;101366.97;;;23.74;100.00
20752;BME280;10536;51.582;5.016;2022-08-04T11:08:34;101378.34;;;23.60;100.00
20752;BME280;10536;51.582;5.016;2022-08-04T11:13:46;101365.13;;;23.45;100.00
20752;BME280;10536;51.582;5.016;2022-08-04T11:19:12;101371.09;;;23.63;100.00
20752;BME280;10536;51.582;5.016;2022-08-04T11:24:43;101360.22;;;23.84;100.00
20752;BME280;10536;51.582;5.016;2022-08-04T11:30:03;101379.09;;;23.92;100.00
20752;BME280;10536;51.582;5.016;2022-08-04T11:35:06;101375.63;;;24.20;100.00
20752;BME280;10536;51.582;5.016;2022-08-04T11:40:23;101384.41;;;24.35;100.00
20752;BME280;10536;51.582;5.016;2022-08-04T11:45:30;101380.31;;;24.44;100.00
20752;BME280;10536;51.582;5.016;2022-08-04T11:50:43;101382.53;;;24.52;100.00
20752;BME280;10536;51.582;5.016;2022-08-04T11:55:45;101391.47;;;24.63;100.00
20752;BME280;10536;51.582;5.016;2022-08-04T12:01:22;101396.69;;;24.65;100.00
20752;BME280;10536;51.582;5.016;2022-08-04T12:06:54;101396.81;;;24.91;100.00
20752;BME280;10536;51.582;5.016;2022-08-04T12:12:06;101397.84;;;25.15;100.00
20752;BME280;10536;51.582;5.016;2022-08-04T12:17:15;101397.47;;;25.49;100.00
20752;BME280;10536;51.582;5.016;2022-08-04T12:22:23;101411.88;;;25.57;100.00
20752;BME280;10536;51.582;5.016;2022-08-04T12:27:28;101415.81;;;25.65;100.00
20752;BME280;10536;51.582;5.016;2022-08-04T12:33:09;101419.22;;;25.79;100.00
20752;BME280;10536;51.582;5.016;2022-08-04T12:38:12;101407.91;;;26.16;100.00
20752;BME280;10536;51.582;5.016;2022-08-04T12:48:21;101399.28;;;26.51;100.00
20752;BME280;10536;51.582;5.016;2022-08-04T12:53:32;101399.69;;;26.57;100.00
20752;BME280;10536;51.582;5.016;2022-08-04T12:58:40;101398.78;;;26.83;100.00
20752;BME280;10536;51.582;5.016;2022-08-04T13:04:03;101402.19;;;26.85;100.00
20752;BME280;10536;51.582;5.016;2022-08-04T13:09:17;101401.00;;;27.13;100.00
20752;BME280;10536;51.582;5.016;2022-08-04T13:14:20;101396.63;;;27.25;100.00
20752;BME280;10536;51.582;5.016;2022-08-04T13:19:22;101385.44;;;27.32;100.00
20752;BME280;10536;51.582;5.016;2022-08-04T13:24:24;101390.69;;;27.56;100.00
20752;BME280;10536;51.582;5.016;2022-08-04T13:34:40;101386.75;;;27.73;100.00
20752;BME280;10536;51.582;5.016;2022-08-04T13:39:47;101390.00;;;27.66;100.00
20752;BME280;10536;51.582;5.016;2022-08-04T13:44:53;101386.75;;;27.73;100.00
20752;BME280;10536;51.582;5.016;2022-08-04T13:50:21;101383.69;;;27.67;100.00
20752;BME280;10536;51.582;5.016;2022-08-04T13:55:33;101379.84;;;27.60;100.00
20752;BME280;10536;51.582;5.016;2022-08-04T14:00:47;101385.00;;;27.61;100.00
20752;BME280;10536;51.582;5.016;2022-08-04T14:11:17;101391.22;;;27.84;100.00
20752;BME280;10536;51.582;5.016;2022-08-04T14:16:19;101388.63;;;28.07;100.00
20752;BME280;10536;51.582;5.016;2022-08-04T14:21:20;101382.56;;;28.16;100.00
20752;BME280;10536;51.582;5.016;2022-08-04T14:26:25;101383.19;;;28.31;100.00
20752;BME280;10536;51.582;5.016;2022-08-04T14:31:26;101397.59;;;28.28;100.00
20752;BME280;10536;51.582;5.016;2022-08-04T14:36:26;101384.78;;;28.22;100.00
20752;BME280;10536;51.582;5.016;2022-08-04T14:41:29;101388.75;;;28.16;100.00
20752;BME280;10536;51.582;5.016;2022-08-04T14:46:30;101391.34;;;27.83;100.00
20752;BME280;10536;51.582;5.016;2022-08-04T14:51:57;101393.22;;;27.93;100.00
20752;BME280;10536;51.582;5.016;2022-08-04T14:57:06;101389.72;;;27.93;100.00
20752;BME280;10536;51.582;5.016;2022-08-04T15:02:07;101396.38;;;27.99;100.00
20752;BME280;10536;51.582;5.016;2022-08-04T15:07:08;101400.34;;;27.93;100.00
20752;BME280;10536;51.582;5.016;2022-08-04T15:12:09;101399.84;;;27.88;100.00
20752;BME280;10536;51.582;5.016;2022-08-04T15:17:10;101386.91;;;27.83;100.00
20752;BME280;10536;51.582;5.016;2022-08-04T15:22:12;101395.25;;;27.90;100.00
20752;BME280;10536;51.582;5.016;2022-08-04T15:27:13;101388.13;;;27.90;100.00
20752;BME280;10536;51.582;5.016;2022-08-04T15:32:15;101388.00;;;27.92;100.00
20752;BME280;10536;51.582;5.016;2022-08-04T15:37:24;101382.16;;;27.75;100.00
20752;BME280;10536;51.582;5.016;2022-08-04T15:42:32;101381.63;;;27.59;100.00
20752;BME280;10536;51.582;5.016;2022-08-04T15:47:34;101377.78;;;27.52;100.00
20752;BME280;10536;51.582;5.016;2022-08-04T15:57:59;101381.72;;;27.22;100.00
20752;BME280;10536;51.582;5.016;2022-08-04T16:03:00;101376.03;;;27.15;100.00
20752;BME280;10536;51.582;5.016;2022-08-04T16:08:09;101379.88;;;27.11;100.00
20752;BME280;10536;51.582;5.016;2022-08-04T16:13:15;101385.41;;;27.08;100.00
20752;BME280;10536;51.582;5.016;2022-08-04T16:28:40;101393.84;;;26.65;100.00
20752;BME280;10536;51.582;5.016;2022-08-04T16:33:45;101385.91;;;26.52;100.00
20752;BME280;10536;51.582;5.016;2022-08-04T16:39:06;101388.78;;;26.36;100.00
20752;BME280;10536;51.582;5.016;2022-08-04T16:44:29;101394.75;;;26.27;100.00
20752;BME280;10536;51.582;5.016;2022-08-04T16:49:31;101396.47;;;26.15;100.00
20752;BME280;10536;51.582;5.016;2022-08-04T16:54:34;101412.06;;;25.94;100.00
20752;BME280;10536;51.582;5.016;2022-08-04T16:59:49;101411.34;;;25.65;100.00
20752;BME280;10536;51.582;5.016;2022-08-04T17:04:50;101404.91;;;25.56;100.00
20752;BME280;10536;51.582;5.016;2022-08-04T17:09:51;101417.44;;;25.40;100.00
20752;BME280;10536;51.582;5.016;2022-08-04T17:14:51;101419.56;;;25.20;100.00
20752;BME280;10536;51.582;5.016;2022-08-04T17:19:51;101415.44;;;25.16;100.00
20752;BME280;10536;51.582;5.016;2022-08-04T17:24:58;101419.28;;;24.98;100.00
20752;BME280;10536;51.582;5.016;2022-08-04T17:29:59;101414.59;;;24.74;100.00
20752;BME280;10536;51.582;5.016;2022-08-04T17:34:59;101418.03;;;24.62;100.00
20752;BME280;10536;51.582;5.016;2022-08-04T17:40:11;101427.63;;;24.49;100.00
20752;BME280;10536;51.582;5.016;2022-08-04T17:45:15;101425.16;;;24.31;100.00
20752;BME280;10536;51.582;5.016;2022-08-04T17:50:28;101432.53;;;24.40;100.00
20752;BME280;10536;51.582;5.016;2022-08-04T17:55:46;101429.63;;;24.31;100.00
20752;BME280;10536;51.582;5.016;2022-08-04T18:00:59;101431.59;;;24.27;100.00
20752;BME280;10536;51.582;5.016;2022-08-04T18:06:26;101429.25;;;24.22;100.00
20752;BME280;10536;51.582;5.016;2022-08-04T18:11:26;101440.66;;;24.23;100.00
20752;BME280;10536;51.582;5.016;2022-08-04T18:16:27;101450.63;;;24.03;100.00
20752;BME280;10536;51.582;5.016;2022-08-04T18:21:27;101457.72;;;23.89;100.00
20752;BME280;10536;51.582;5.016;2022-08-04T18:26:28;101470.81;;;23.74;100.00
20752;BME280;10536;51.582;5.016;2022-08-04T18:31:30;101483.34;;;23.71;100.00
20752;BME280;10536;51.582;5.016;2022-08-04T18:36:30;101494.56;;;23.60;100.00
20752;BME280;10536;51.582;5.016;2022-08-04T18:41:31;101492.19;;;23.39;100.00
20752;BME280;10536;51.582;5.016;2022-08-04T18:46:33;101510.44;;;23.28;100.00
20752;BME280;10536;51.582;5.016;2022-08-04T18:51:33;101501.13;;;23.21;100.00
20752;BME280;10536;51.582;5.016;2022-08-04T18:56:34;101506.41;;;23.05;100.00
20752;BME280;10536;51.582;5.016;2022-08-04T19:01:35;101521.16;;;22.92;100.00
20752;BME280;10536;51.582;5.016;2022-08-04T19:06:36;101526.41;;;22.76;100.00
20752;BME280;10536;51.582;5.016;2022-08-04T19:11:37;101538.41;;;22.65;100.00
20752;BME280;10536;51.582;5.016;2022-08-04T19:16:37;101549.63;;;22.52;100.00
20752;BME280;10536;51.582;5.016;2022-08-04T19:21:41;101567.81;;;22.40;100.00
20752;BME280;10536;51.582;5.016;2022-08-04T19:26:41;101582.22;;;22.33;100.00
20752;BME280;10536;51.582;5.016;2022-08-04T19:31:42;101567.44;;;22.12;100.00
20752;BME280;10536;51.582;5.016;2022-08-04T19:36:42;101573.63;;;22.11;100.00
20752;BME280;10536;51.582;5.016;2022-08-04T19:41:43;101577.97;;;21.94;100.00
20752;BME280;10536;51.582;5.016;2022-08-04T19:46:43;101574.38;;;21.78;100.00
20752;BME280;10536;51.582;5.016;2022-08-04T19:51:45;101581.78;;;21.69;100.00
20752;BME280;10536;51.582;5.016;2022-08-04T19:56:46;101593.31;;;21.67;100.00
20752;BME280;10536;51.582;5.016;2022-08-04T20:01:46;101591.69;;;21.64;100.00
20752;BME280;10536;51.582;5.016;2022-08-04T20:06:47;101593.53;;;21.62;100.00
20752;BME280;10536;51.582;5.016;2022-08-04T20:11:49;101584.88;;;21.60;100.00
20752;BME280;10536;51.582;5.016;2022-08-04T20:16:49;101599.00;;;21.58;100.00
20752;BME280;10536;51.582;5.016;2022-08-04T20:21:50;101604.13;;;21.61;100.00
20752;BME280;10536;51.582;5.016;2022-08-04T20:26:50;101586.63;;;21.60;100.00
20752;BME280;10536;51.582;5.016;2022-08-04T20:31:51;101613.03;;;21.58;100.00
20752;BME280;10536;51.582;5.016;2022-08-04T20:36:51;101616.66;;;21.56;100.00
20752;BME280;10536;51.582;5.016;2022-08-04T20:41:51;101622.13;;;21.51;100.00
20752;BME280;10536;51.582;5.016;2022-08-04T20:46:52;101624.13;;;21.46;100.00
20752;BME280;10536;51.582;5.016;2022-08-04T20:51:52;101618.25;;;21.39;100.00
20752;BME280;10536;51.582;5.016;2022-08-04T20:56:55;101607.88;;;21.36;100.00
20752;BME280;10536;51.582;5.016;2022-08-04T21:01:57;101584.53;;;21.28;100.00
20752;BME280;10536;51.582;5.016;2022-08-04T21:06:59;101592.56;;;21.06;100.00
20752;BME280;10536;51.582;5.016;2022-08-04T21:11:59;101598.91;;;20.82;100.00
20752;BME280;10536;51.582;5.016;2022-08-04T21:17:00;101591.03;;;20.61;100.00
20752;BME280;10536;51.582;5.016;2022-08-04T21:22:01;101601.50;;;20.41;100.00
20752;BME280;10536;51.582;5.016;2022-08-04T21:27:02;101583.28;;;20.16;100.00
20752;BME280;10536;51.582;5.016;2022-08-04T21:32:06;101565.38;;;20.03;100.00
20752;BME280;10536;51.582;5.016;2022-08-04T21:37:09;101574.50;;;19.95;100.00
20752;BME280;10536;51.582;5.016;2022-08-04T21:42:11;101566.47;;;19.98;100.00
20752;BME280;10536;51.582;5.016;2022-08-04T21:47:11;101575.78;;;19.84;100.00
20752;BME280;10536;51.582;5.016;2022-08-04T21:52:13;101551.44;;;19.81;100.00
20752;BME280;10536;51.582;5.016;2022-08-04T21:57:14;101563.78;;;19.79;100.00
20752;BME280;10536;51.582;5.016;2022-08-04T22:02:14;101563.13;;;19.72;100.00
20752;BME280;10536;51.582;5.016;2022-08-04T22:07:15;101574.31;;;19.77;100.00
20752;BME280;10536;51.582;5.016;2022-08-04T22:12:15;101567.97;;;19.83;100.00
20752;BME280;10536;51.582;5.016;2022-08-04T22:17:16;101564.66;;;19.78;100.00
20752;BME280;10536;51.582;5.016;2022-08-04T22:22:16;101579.13;;;19.88;100.00
20752;BME280;10536;51.582;5.016;2022-08-04T22:27:16;101571.88;;;19.95;100.00
20752;BME280;10536;51.582;5.016;2022-08-04T22:32:35;101549.81;;;19.99;100.00
20752;BME280;10536;51.582;5.016;2022-08-04T22:37:36;101535.66;;;20.03;100.00
20752;BME280;10536;51.582;5.016;2022-08-04T22:42:37;101543.72;;;19.98;100.00
20752;BME280;10536;51.582;5.016;2022-08-04T22:47:37;101537.84;;;19.91;100.00
20752;BME280;10536;51.582;5.016;2022-08-04T22:52:38;101521.25;;;19.91;100.00
20752;BME280;10536;51.582;5.016;2022-08-04T22:57:38;101543.31;;;19.87;100.00
20752;BME280;10536;51.582;5.016;2022-08-04T23:02:39;101558.06;;;19.89;100.00
20752;BME280;10536;51.582;5.016;2022-08-04T23:07:39;101548.50;;;19.88;100.00
20752;BME280;10536;51.582;5.016;2022-08-04T23:12:40;101555.34;;;19.92;100.00
20752;BME280;10536;51.582;5.016;2022-08-04T23:17:40;101563.75;;;20.01;100.00
20752;BME280;10536;51.582;5.016;2022-08-04T23:22:41;101556.66;;;20.03;100.00
20752;BME280;10536;51.582;5.016;2022-08-04T23:27:41;101541.75;;;20.03;100.00
20752;BME280;10536;51.582;5.016;2022-08-04T23:32:42;101551.34;;;20.04;100.00
20752;BME280;10536;51.582;5.016;2022-08-04T23:37:42;101544.03;;;19.90;100.00
20752;BME280;10536;51.582;5.016;2022-08-04T23:42:43;101548.34;;;19.91;100.00
20752;BME280;10536;51.582;5.016;2022-08-04T23:47:43;101547.50;;;19.91;100.00
20752;BME280;10536;51.582;5.016;2022-08-04T23:52:43;101522.97;;;19.92;100.00
20752;BME280;10536;51.582;5.016;2022-08-04T23:57:44;101536.03;;;19.93;100.00
